ORF weather

Norfolk International Airport
Norfolk, Virginia, United States

Public forecast

Using degrees Fahrenheit for public forecast. Weather courtesy of forecast.io.

Current aviation weather report (METAR) for Norfolk International Airport

Retrieved 2019/10/13 22:51 UTC (46 minutes ago):

KORF 132251Z 25004KT 10SM OVC110 23/17 A2999 RMK AO2 SLP155 T02330172

Aviation forecast (TAF) for Norfolk International Airport

Retrieved 2019/10/13 18:22 UTC (5 hours ago):

TAF KORF 131720Z 1318/1418 04005KT P6SM VCSH SCT025 BKN100 FM132200 16005KT 6SM -SHRA BKN025 OVC050 FM140200 19006KT 5SM -SHRA OVC025 FM140600 22008KT 4SM SHRA OVC015 FM141100 27005KT 4SM BR BKN012 FM141300 28006KT P6SM BKN012 FM141500 31006KT P6SM BKN025